Time;durP1;ratioP1;P1;durP2;ratioP2;P2;SDS_P1;SDS_P2;PMS_P1;PMS_P2;Temp;Humidity;BMP_temperature;BMP_pressure;BME280_temperature;BME280_humidity;BME280_pressure;Samples;Min_cycle;Max_cycle;Signal;HPM_P1;HPM_P2
2022/02/01 00:02:06;;;;;;;20.45;10.05;;;3.00;99.90;;;;;;5026107;28;20032;-55
2022/02/01 00:04:43;;;;;;;19.00;10.10;;;3.00;99.90;;;;;;5029565;28;20401;-54
2022/02/01 00:07:18;;;;;;;;;;;3.00;99.90;;;;;;5028076;28;20049;-55
2022/02/01 00:09:57;;;;;;;20.05;8.32;;;3.00;99.90;;;;;;5028543;28;19920;-55
2022/02/01 00:12:37;;;;;;;17.67;8.68;;;3.00;99.90;;;;;;5027732;28;20032;-55
2022/02/01 00:34:40;;;;;;;12.90;7.80;;;3.00;99.90;;;;;;5026974;28;20178;-55
2022/02/01 00:37:09;;;;;;;17.42;8.80;;;3.00;99.90;;;;;;5026995;28;20029;-55
2022/02/01 00:39:43;;;;;;;20.67;10.18;;;3.00;99.90;;;;;;5027673;28;20107;-55
2022/02/01 00:42:12;;;;;;;17.63;9.70;;;3.00;99.90;;;;;;5027746;28;20116;-55
2022/02/01 00:44:39;;;;;;;20.27;9.13;;;3.00;99.90;;;;;;5027551;28;20033;-54
2022/02/01 00:47:05;;;;;;;17.52;9.30;;;3.00;99.90;;;;;;5026817;28;20190;-55
2022/02/01 00:49:33;;;;;;;18.23;8.65;;;3.00;99.90;;;;;;5025942;28;20029;-55
2022/02/01 00:51:59;;;;;;;16.52;8.93;;;3.00;99.90;;;;;;5027037;28;20029;-55
2022/02/01 00:54:24;;;;;;;20.15;8.32;;;3.00;99.90;;;;;;5026356;28;20032;-55
2022/02/01 00:56:50;;;;;;;17.85;9.73;;;3.00;99.90;;;;;;5027582;28;20029;-55
2022/02/01 00:59:16;;;;;;;18.48;8.88;;;3.00;99.90;;;;;;5026666;28;20021;-55
2022/02/01 01:01:41;;;;;;;17.13;9.77;;;2.90;99.90;;;;;;5024209;28;20026;-55
2022/02/01 01:04:07;;;;;;;11.98;6.88;;;2.90;99.90;;;;;;5023979;28;20391;-54
2022/02/01 01:06:32;;;;;;;23.60;8.38;;;2.90;99.90;;;;;;5024859;28;20034;-54
2022/02/01 01:08:58;;;;;;;15.30;9.60;;;2.80;99.90;;;;;;5026321;28;20033;-53
2022/02/01 01:11:24;;;;;;;24.50;9.82;;;2.80;99.90;;;;;;5024678;28;20026;-55
2022/02/01 01:17:07;;;;;;;20.00;9.48;;;2.80;99.90;;;;;;5026430;28;20033;-56
2022/02/01 01:43:57;;;;;;;21.60;11.52;;;2.90;99.90;;;;;;5027746;28;20037;-55
2022/02/01 01:54:24;;;;;;;28.10;12.55;;;3.00;99.90;;;;;;5025864;28;20052;-54
2022/02/01 01:56:53;;;;;;;26.52;13.27;;;3.00;99.90;;;;;;5025929;28;20029;-55
2022/02/01 01:59:19;;;;;;;30.40;13.38;;;3.00;99.90;;;;;;5026038;28;20033;-55
2022/02/01 02:01:45;;;;;;;30.17;14.00;;;3.00;99.90;;;;;;5026017;28;20556;-55
2022/02/01 02:04:11;;;;;;;;;;;3.10;99.90;;;;;;5025561;28;20029;-52
2022/02/01 02:06:38;;;;;;;26.60;12.50;;;3.10;99.90;;;;;;5026888;28;19967;-54
2022/02/01 02:09:06;;;;;;;22.33;11.98;;;3.10;99.90;;;;;;5025628;28;20132;-55
2022/02/01 02:16:44;;;;;;;25.73;13.10;;;3.10;99.90;;;;;;5027051;28;20100;-55
2022/02/01 02:19:10;;;;;;;24.77;13.48;;;3.00;99.90;;;;;;5025860;28;20109;-55
2022/02/01 02:21:38;;;;;;;25.65;12.00;;;3.00;99.90;;;;;;5028140;28;20061;-55
2022/02/01 02:24:04;;;;;;;20.80;11.15;;;2.90;99.90;;;;;;5029880;28;20112;-55
2022/02/01 02:26:30;;;;;;;21.83;11.63;;;2.80;99.90;;;;;;5028318;28;20026;-55
2022/02/01 02:28:58;;;;;;;21.38;10.73;;;2.80;99.90;;;;;;5029001;28;20434;-52
2022/02/01 02:31:23;;;;;;;21.52;11.70;;;2.70;99.90;;;;;;5028988;28;20064;-55
2022/02/01 02:33:56;;;;;;;21.58;11.38;;;2.80;99.90;;;;;;5029075;28;20057;-54
2022/02/01 02:36:22;;;;;;;21.48;9.82;;;2.80;99.90;;;;;;5029411;28;20470;-55
2022/02/01 02:39:03;;;;;;;;;;;2.80;99.90;;;;;;5031033;28;20041;-55
2022/02/01 02:41:35;;;;;;;20.45;12.75;;;2.80;99.90;;;;;;5028030;28;19941;-55
2022/02/01 02:46:50;;;;;;;16.98;10.38;;;2.80;99.90;;;;;;5028395;28;20036;-53
2022/02/01 02:49:22;;;;;;;17.15;9.88;;;2.70;99.90;;;;;;5030036;28;20034;-55
2022/02/01 02:51:48;;;;;;;13.55;7.72;;;2.70;99.90;;;;;;5027915;28;20375;-55
2022/02/01 02:54:19;;;;;;;15.82;8.80;;;2.70;99.90;;;;;;5029211;28;20028;-55
2022/02/01 02:56:47;;;;;;;15.80;8.20;;;2.70;99.90;;;;;;5029200;28;20482;-55
2022/02/01 02:59:14;;;;;;;18.15;10.07;;;2.70;99.90;;;;;;5029426;28;20429;-55
2022/02/01 03:01:48;;;;;;;15.68;8.10;;;2.80;99.90;;;;;;5027862;28;20029;-54
2022/02/01 03:04:19;;;;;;;16.45;8.50;;;2.80;99.90;;;;;;5026877;28;20021;-55
2022/02/01 03:06:45;;;;;;;18.83;9.65;;;2.80;99.90;;;;;;5044555;22;20049;-55
2022/02/01 03:09:11;;;;;;;11.73;7.18;;;2.80;99.90;;;;;;5011399;28;20487;-55
2022/02/01 03:11:38;;;;;;;15.77;6.93;;;2.80;99.90;;;;;;5014730;28;20041;-57
2022/02/01 03:14:15;;;;;;;16.00;7.35;;;2.80;99.90;;;;;;5011166;28;20648;-58
2022/02/01 03:17:01;;;;;;;14.85;6.72;;;2.80;99.90;;;;;;5019385;28;20021;-57
2022/02/01 03:22:10;;;;;;;8.80;4.22;;;2.80;99.90;;;;;;5032066;28;20410;-56
2022/02/01 03:24:36;;;;;;;12.77;4.50;;;2.80;99.90;;;;;;5032073;28;20025;-55
2022/02/01 03:27:02;;;;;;;15.05;5.32;;;2.90;99.90;;;;;;5029978;28;20156;-55
2022/02/01 03:29:28;;;;;;;13.57;5.05;;;2.80;99.90;;;;;;5035799;28;20075;-56
2022/02/01 03:31:53;;;;;;;18.40;5.55;;;2.90;99.90;;;;;;5031689;28;20025;-54
2022/02/01 03:34:19;;;;;;;19.55;5.65;;;2.90;99.90;;;;;;5029469;28;20048;-54
2022/02/01 03:36:45;;;;;;;18.67;6.38;;;3.00;99.90;;;;;;5030390;28;20443;-56
2022/02/01 03:39:10;;;;;;;;;;;3.00;99.90;;;;;;5038237;28;20072;-52
2022/02/01 03:41:36;;;;;;;16.83;5.13;;;3.00;99.90;;;;;;5038572;28;20001;-56
2022/02/01 03:44:04;;;;;;;12.98;4.72;;;3.00;99.90;;;;;;5032190;28;20230;-55
2022/02/01 03:46:29;;;;;;;16.35;5.68;;;3.00;99.90;;;;;;5030468;28;20452;-52
2022/02/01 03:48:55;;;;;;;12.40;3.17;;;3.10;99.90;;;;;;5032335;28;20030;-54
2022/02/01 03:51:20;;;;;;;9.63;3.45;;;3.10;99.90;;;;;;5029070;28;20505;-55
2022/02/01 03:53:46;;;;;;;10.57;4.13;;;3.10;99.90;;;;;;5030055;28;20037;-55
2022/02/01 03:56:11;;;;;;;12.20;4.45;;;3.10;99.90;;;;;;5031318;28;20053;-51
2022/02/01 03:58:37;;;;;;;17.02;4.32;;;3.10;99.90;;;;;;5029833;28;20021;-54
2022/02/01 04:01:03;;;;;;;9.85;3.75;;;3.10;99.90;;;;;;5032314;28;20048;-54
2022/02/01 04:03:28;;;;;;;10.02;3.38;;;3.00;99.90;;;;;;5030233;28;20026;-56
2022/02/01 04:05:54;;;;;;;21.00;5.18;;;3.00;99.90;;;;;;5031563;28;20029;-54
2022/02/01 04:08:21;;;;;;;13.98;5.15;;;2.90;99.90;;;;;;5028258;28;20034;-55
2022/02/01 04:10:49;;;;;;;11.45;4.35;;;2.90;99.90;;;;;;5030018;28;20042;-56
2022/02/01 04:13:15;;;;;;;10.80;3.45;;;2.90;99.90;;;;;;5029378;28;20025;-56
2022/02/01 04:15:42;;;;;;;12.10;4.32;;;2.90;99.90;;;;;;5031443;28;20398;-55
2022/02/01 04:18:08;;;;;;;15.02;5.03;;;2.80;99.90;;;;;;5029196;28;20021;-57
2022/02/01 04:20:34;;;;;;;;;;;2.80;99.90;;;;;;5032561;28;20025;-53
2022/02/01 04:22:59;;;;;;;12.20;3.45;;;2.80;99.90;;;;;;5028813;28;19954;-56
2022/02/01 04:25:25;;;;;;;8.25;2.67;;;2.80;99.90;;;;;;5030958;28;20033;-53
2022/02/01 04:27:50;;;;;;;11.32;3.25;;;2.80;99.90;;;;;;5029910;28;20167;-54
2022/02/01 04:30:18;;;;;;;15.63;2.53;;;2.80;99.90;;;;;;5030796;28;20032;-55
2022/02/01 04:32:46;;;;;;;9.45;2.90;;;2.80;99.90;;;;;;5034329;28;20083;-56
2022/02/01 04:35:15;;;;;;;11.55;3.45;;;2.80;99.90;;;;;;5029589;28;20091;-54
2022/02/01 04:37:41;;;;;;;11.70;2.83;;;2.80;99.90;;;;;;5033542;28;20032;-53
2022/02/01 04:40:10;;;;;;;8.55;4.55;;;2.80;99.90;;;;;;5031517;28;20037;-55
2022/02/01 04:42:37;;;;;;;8.90;2.75;;;2.80;99.90;;;;;;5030427;28;20414;-54
2022/02/01 04:45:05;;;;;;;18.17;5.97;;;2.70;99.90;;;;;;5029256;28;20103;-58
2022/02/01 04:47:33;;;;;;;7.22;1.65;;;2.70;99.90;;;;;;5028373;28;20112;-57
2022/02/01 04:50:04;;;;;;;9.63;2.55;;;2.70;99.90;;;;;;5033487;28;20132;-56
2022/02/01 04:52:30;;;;;;;12.10;2.60;;;2.70;99.90;;;;;;5029080;28;20029;-56
2022/02/01 04:54:57;;;;;;;12.63;1.90;;;2.70;99.90;;;;;;5029623;28;20422;-56
2022/02/01 04:57:23;;;;;;;12.60;2.40;;;2.70;99.90;;;;;;5029617;28;20116;-56
2022/02/01 04:59:48;;;;;;;13.85;2.67;;;2.70;99.90;;;;;;5029585;28;20521;-56
2022/02/01 05:02:14;;;;;;;9.93;2.33;;;2.60;99.90;;;;;;5033088;28;20537;-53
2022/02/01 05:04:39;;;;;;;7.57;2.10;;;2.60;99.90;;;;;;5028943;28;20429;-52
2022/02/01 05:07:05;;;;;;;16.50;3.03;;;2.70;99.90;;;;;;5028635;28;20041;-57
2022/02/01 05:09:32;;;;;;;20.92;4.05;;;2.70;99.90;;;;;;5029762;28;20105;-55
2022/02/01 05:12:00;;;;;;;13.00;2.75;;;2.70;99.90;;;;;;5029505;28;20025;-55
2022/02/01 05:14:28;;;;;;;8.55;2.20;;;2.70;99.90;;;;;;5033115;28;20025;-52
2022/02/01 05:19:34;;;;;;;10.02;2.00;;;2.70;99.90;;;;;;5027325;28;20123;-56
2022/02/01 05:22:05;;;;;;;15.38;3.28;;;2.70;99.90;;;;;;5028214;28;20040;-56
2022/02/01 05:24:34;;;;;;;13.85;3.25;;;2.80;99.90;;;;;;5034313;28;20505;-52
2022/02/01 05:27:01;;;;;;;16.33;2.47;;;2.80;99.90;;;;;;5030303;28;20040;-54
2022/02/01 05:29:26;;;;;;;15.40;2.95;;;2.80;99.90;;;;;;5028416;28;20091;-54
2022/02/01 05:31:52;;;;;;;11.68;2.65;;;2.80;99.90;;;;;;5028922;28;20033;-55
2022/02/01 05:34:18;;;;;;;21.02;5.80;;;2.80;99.90;;;;;;5028643;28;20079;-54
2022/02/01 05:36:44;;;;;;;17.50;2.95;;;2.80;99.90;;;;;;5035756;28;20031;-57
2022/02/01 05:39:19;;;;;;;13.88;2.83;;;2.80;99.90;;;;;;5028931;28;20132;-52
2022/02/01 05:41:46;;;;;;;14.45;2.00;;;2.80;99.90;;;;;;5028631;28;20037;-57
2022/02/01 05:44:12;;;;;;;9.27;1.85;;;2.90;99.90;;;;;;5028849;28;20029;-54
2022/02/01 05:46:39;;;;;;;14.00;4.18;;;2.90;99.90;;;;;;5028947;28;20441;-55
2022/02/01 05:49:05;;;;;;;13.00;2.85;;;2.90;99.90;;;;;;5030311;28;20037;-56
2022/02/01 05:51:31;;;;;;;16.70;3.28;;;2.90;99.90;;;;;;5028850;28;20433;-56
2022/02/01 05:53:57;;;;;;;12.35;3.17;;;2.90;99.90;;;;;;5026167;28;20048;-56
2022/02/01 05:56:23;;;;;;;14.07;3.33;;;2.90;99.90;;;;;;5029824;28;20028;-54
2022/02/01 05:58:48;;;;;;;8.40;2.50;;;2.90;99.90;;;;;;5031033;28;20398;-57
2022/02/01 06:01:14;;;;;;;14.10;2.30;;;2.90;99.90;;;;;;5027739;28;20036;-56
2022/02/01 06:03:40;;;;;;;15.88;2.65;;;2.90;99.90;;;;;;5027377;28;20041;-52
2022/02/01 06:06:07;;;;;;;16.83;3.63;;;2.90;99.90;;;;;;5031927;28;20025;-53
2022/02/01 06:08:33;;;;;;;11.45;2.97;;;2.90;99.90;;;;;;5027522;28;20524;-55
2022/02/01 06:10:59;;;;;;;15.20;2.70;;;3.00;99.90;;;;;;5027189;28;20033;-54
2022/02/01 06:15:38;;;;;;;12.13;2.88;;;3.00;99.90;;;;;;5132682;27;20333;-56
2022/02/01 06:18:04;;;;;;;10.38;2.10;;;3.00;99.90;;;;;;5128527;27;20057;-55
2022/02/01 06:20:30;;;;;;;15.40;3.10;;;3.00;99.90;;;;;;5139744;27;20038;-52
2022/02/01 06:22:56;;;;;;;9.07;2.20;;;3.00;99.90;;;;;;5121088;27;20028;-56
2022/02/01 06:25:45;;;;;;;19.23;3.20;;;3.10;99.90;;;;;;5137146;27;20028;-57
2022/02/01 06:28:07;;;;;;;11.80;2.13;;;3.10;99.90;;;;;;5129692;27;20066;-54
2022/02/01 06:30:32;;;;;;;18.25;3.13;;;3.10;99.90;;;;;;5136722;27;20442;-56
2022/02/01 06:32:58;;;;;;;13.30;2.13;;;3.00;99.90;;;;;;5123379;27;20024;-56
2022/02/01 06:35:25;;;;;;;16.60;3.30;;;3.00;99.90;;;;;;5137518;27;20418;-55
2022/02/01 06:37:50;;;;;;;13.32;3.33;;;3.00;99.90;;;;;;5141867;27;20027;-58
2022/02/01 06:40:18;;;;;;;16.75;3.35;;;3.00;99.90;;;;;;5128891;27;20056;-53
2022/02/01 06:42:47;;;;;;;13.75;4.22;;;3.00;99.90;;;;;;5132874;27;20114;-54
2022/02/01 06:45:13;;;;;;;18.58;2.17;;;3.00;99.90;;;;;;5126977;27;20026;-54
2022/02/01 06:47:38;;;;;;;18.08;3.55;;;3.00;99.90;;;;;;5133613;27;20026;-56
2022/02/01 06:50:05;;;;;;;14.95;2.30;;;3.00;99.90;;;;;;5123157;27;20028;-56
2022/02/01 06:52:32;;;;;;;15.45;3.85;;;3.00;99.90;;;;;;5125804;27;20023;-55
2022/02/01 06:55:01;;;;;;;34.25;5.03;;;3.00;99.90;;;;;;5132509;27;20034;-57
2022/02/01 06:57:27;;;;;;;14.13;2.83;;;3.10;99.90;;;;;;5132398;27;20041;-56
2022/02/01 06:59:52;;;;;;;16.50;3.67;;;3.10;99.90;;;;;;5129400;27;20151;-52
2022/02/01 07:02:18;;;;;;;12.85;3.40;;;3.10;99.90;;;;;;5129201;27;20529;-56
2022/02/01 07:04:44;;;;;;;15.65;2.67;;;3.10;99.90;;;;;;5136272;27;20035;-56
2022/02/01 07:07:09;;;;;;;20.77;3.13;;;3.10;99.90;;;;;;5127297;27;20067;-55
2022/02/01 07:09:36;;;;;;;11.90;2.20;;;3.10;99.90;;;;;;5128739;27;20035;-55
2022/02/01 07:12:02;;;;;;;19.40;4.30;;;3.10;99.90;;;;;;5135890;27;20488;-56
2022/02/01 07:14:28;;;;;;;28.27;10.15;;;3.10;99.90;;;;;;5141663;27;20072;-56
2022/02/01 07:16:53;;;;;;;17.00;3.97;;;3.10;99.90;;;;;;5133507;27;20617;-55
2022/02/01 07:19:19;;;;;;;26.48;6.22;;;3.10;99.90;;;;;;5130060;27;20380;-57
2022/02/01 07:21:44;;;;;;;19.00;3.42;;;3.10;99.90;;;;;;5126880;27;20070;-57
2022/02/01 07:24:15;;;;;;;22.83;5.88;;;3.10;99.90;;;;;;5129111;27;20300;-56
2022/02/01 07:26:51;;;;;;;10.35;4.75;;;3.10;99.90;;;;;;5123614;27;20368;-55
2022/02/01 07:29:17;;;;;;;12.85;3.20;;;3.10;99.90;;;;;;5111651;27;20451;-56
2022/02/01 07:31:42;;;;;;;18.20;4.38;;;3.00;99.90;;;;;;5114305;27;20035;-53
2022/02/01 07:34:08;;;;;;;13.20;3.60;;;3.10;99.90;;;;;;5115413;27;20088;-57
2022/02/01 07:36:34;;;;;;;20.48;5.82;;;3.10;99.90;;;;;;5113537;27;20479;-55
2022/02/01 07:39:00;;;;;;;16.27;2.80;;;3.10;99.90;;;;;;5117950;27;20235;-54
2022/02/01 07:41:25;;;;;;;19.42;3.47;;;3.10;99.90;;;;;;5114762;27;20043;-55
2022/02/01 07:43:53;;;;;;;9.10;2.28;;;3.20;99.90;;;;;;5109536;27;20031;-56
2022/02/01 07:46:19;;;;;;;14.15;2.38;;;3.20;99.90;;;;;;5112220;27;20031;-54
2022/02/01 07:48:45;;;;;;;27.65;6.78;;;3.20;99.90;;;;;;5120454;27;20069;-56
2022/02/01 07:51:10;;;;;;;15.77;3.05;;;3.20;99.90;;;;;;5117979;27;20491;-55
2022/02/01 07:53:36;;;;;;;16.15;3.92;;;3.20;99.90;;;;;;5123540;27;20051;-56
2022/02/01 07:56:02;;;;;;;20.10;4.90;;;3.20;99.90;;;;;;5117744;27;20412;-53
2022/02/01 07:58:27;;;;;;;13.00;2.47;;;3.20;99.90;;;;;;5121621;27;20031;-58
2022/02/01 08:00:53;;;;;;;12.60;2.70;;;3.20;99.90;;;;;;5117832;27;20023;-54
2022/02/01 08:03:18;;;;;;;14.15;2.67;;;3.20;99.90;;;;;;5123444;27;20024;-54
2022/02/01 08:05:44;;;;;;;9.82;2.55;;;3.30;99.90;;;;;;5123290;27;20027;-58
2022/02/01 08:08:11;;;;;;;14.45;2.42;;;3.30;99.90;;;;;;5117810;27;20027;-56
2022/02/01 08:10:47;;;;;;;13.18;2.65;;;3.30;99.90;;;;;;5120241;27;20033;-56
2022/02/01 08:14:43;;;;;;;12.85;2.63;;;3.30;99.90;;;;;;5119308;27;20518;-56
2022/02/01 08:21:10;;;;;;;10.77;2.33;;;3.40;99.90;;;;;;5108178;27;20022;-55
2022/02/01 08:23:37;;;;;;;12.75;3.65;;;3.40;99.90;;;;;;5118842;27;20027;-56
2022/02/01 08:26:02;;;;;;;7.07;2.28;;;3.40;99.90;;;;;;5117240;27;20035;-58
2022/02/01 08:28:29;;;;;;;19.75;3.55;;;3.50;99.90;;;;;;5116356;27;20365;-57
2022/02/01 08:30:55;;;;;;;6.97;3.00;;;3.50;99.90;;;;;;5117512;27;20059;-58
2022/02/01 08:33:22;;;;;;;13.52;2.95;;;3.50;99.90;;;;;;5116526;27;20088;-58
2022/02/01 08:35:48;;;;;;;7.10;2.40;;;3.60;99.90;;;;;;5116762;27;20043;-58
2022/02/01 08:38:14;;;;;;;11.93;3.20;;;3.60;99.90;;;;;;5117623;27;20027;-55
2022/02/01 08:40:39;;;;;;;13.70;2.85;;;3.60;99.90;;;;;;5120453;27;20426;-58
2022/02/01 08:43:05;;;;;;;17.33;2.55;;;3.70;99.90;;;;;;5109056;27;20042;-56
2022/02/01 08:45:31;;;;;;;9.68;3.28;;;3.70;99.90;;;;;;5114377;27;20044;-56
2022/02/01 08:47:57;;;;;;;9.20;2.63;;;3.80;99.90;;;;;;5115929;27;20045;-53
2022/02/01 08:50:29;;;;;;;21.05;3.53;;;3.80;99.90;;;;;;5122498;27;20433;-53
2022/02/01 08:52:59;;;;;;;21.08;5.57;;;3.80;99.90;;;;;;5118168;27;20031;-55
2022/02/01 08:55:38;;;;;;;8.35;2.35;;;3.90;99.90;;;;;;5117206;27;20058;-55
2022/02/01 08:58:04;;;;;;;21.08;2.55;;;3.90;99.90;;;;;;5120627;27;20027;-55
2022/02/01 09:00:32;;;;;;;16.17;3.42;;;4.00;99.90;;;;;;5117317;27;20024;-53
2022/02/01 09:02:58;;;;;;;12.57;2.10;;;4.10;99.90;;;;;;5115977;27;20446;-56
2022/02/01 09:05:24;;;;;;;;;;;4.10;99.90;;;;;;5113624;27;20434;-53
2022/02/01 09:07:50;;;;;;;13.20;2.20;;;4.20;99.90;;;;;;5096043;22;19924;-57
2022/02/01 09:10:16;;;;;;;11.93;1.80;;;4.20;99.90;;;;;;5040611;28;20025;-57
2022/02/01 09:12:41;;;;;;;8.35;2.00;;;4.30;99.90;;;;;;5041657;28;20029;-57
2022/02/01 09:15:07;;;;;;;6.82;1.98;;;4.40;99.90;;;;;;5041024;28;20060;-58
2022/02/01 09:17:32;;;;;;;8.88;2.72;;;4.40;99.90;;;;;;5041117;28;20025;-58
2022/02/01 09:19:59;;;;;;;13.43;2.72;;;4.50;99.90;;;;;;5040943;28;20048;-57
2022/02/01 09:22:25;;;;;;;7.50;3.53;;;4.50;99.90;;;;;;5044371;28;20729;-57
2022/02/01 09:24:50;;;;;;;18.38;2.80;;;4.50;99.90;;;;;;5040765;28;20144;-57
2022/02/01 09:27:16;;;;;;;18.50;4.07;;;4.60;99.90;;;;;;5044353;28;20043;-58
2022/02/01 09:29:42;;;;;;;14.13;3.33;;;4.60;99.90;;;;;;5042774;28;20033;-57
2022/02/01 09:32:07;;;;;;;18.17;3.78;;;4.70;99.90;;;;;;5040802;28;20037;-57
2022/02/01 09:34:34;;;;;;;15.60;4.18;;;4.70;99.90;;;;;;5044256;28;20036;-57
2022/02/01 09:37:03;;;;;;;7.72;2.03;;;4.80;99.90;;;;;;5040410;28;20139;-57
2022/02/01 09:39:29;;;;;;;10.52;1.85;;;4.80;99.90;;;;;;5040969;28;20021;-57
2022/02/01 09:41:55;;;;;;;12.77;2.83;;;4.90;99.90;;;;;;5042092;28;20031;-58
2022/02/01 09:44:22;;;;;;;16.05;3.53;;;5.00;99.90;;;;;;5042800;28;20167;-58
2022/02/01 09:46:50;;;;;;;9.88;1.95;;;5.10;99.90;;;;;;5042655;28;20040;-59
2022/02/01 09:49:17;;;;;;;10.00;2.45;;;5.10;99.90;;;;;;5041750;28;20146;-58
2022/02/01 09:51:44;;;;;;;10.73;4.65;;;5.20;99.90;;;;;;5035405;28;20036;-57
2022/02/01 09:54:10;;;;;;;9.70;3.40;;;5.20;99.90;;;;;;5040623;28;20032;-58
2022/02/01 09:56:36;;;;;;;6.40;1.98;;;5.20;99.90;;;;;;5039216;28;20528;-58
2022/02/01 09:59:16;;;;;;;15.18;2.50;;;5.20;99.90;;;;;;5038141;28;20386;-57
2022/02/01 10:01:44;;;;;;;8.48;2.38;;;5.30;99.90;;;;;;5038700;28;20553;-58
2022/02/01 10:04:10;;;;;;;29.70;4.05;;;5.40;99.90;;;;;;5043326;28;20107;-57
2022/02/01 10:06:39;;;;;;;7.85;2.92;;;5.50;99.90;;;;;;5040359;28;20115;-57
2022/02/01 10:09:13;;;;;;;7.32;2.28;;;5.60;99.90;;;;;;5042105;28;20123;-57
2022/02/01 10:11:45;;;;;;;10.70;2.92;;;5.60;99.90;;;;;;5037021;28;20121;-57
2022/02/01 10:14:20;;;;;;;9.82;2.30;;;5.60;99.90;;;;;;5044018;28;20133;-56
2022/02/01 10:16:59;;;;;;;8.95;1.70;;;5.70;99.90;;;;;;5041154;28;20025;-57
2022/02/01 10:19:25;;;;;;;9.65;2.70;;;5.60;99.90;;;;;;5044589;28;20520;-58
2022/02/01 10:22:02;;;;;;;6.45;1.45;;;5.60;99.90;;;;;;5044235;28;20033;-57
2022/02/01 10:24:32;;;;;;;9.00;2.60;;;5.60;99.90;;;;;;5038488;28;20060;-57
2022/02/01 10:27:18;;;;;;;9.02;2.70;;;5.60;99.90;;;;;;5042675;28;20024;-58
2022/02/01 10:30:00;;;;;;;7.18;1.98;;;5.70;99.90;;;;;;5042076;28;20059;-57
2022/02/01 10:32:39;;;;;;;9.57;1.70;;;5.70;99.90;;;;;;5041732;28;20040;-57
2022/02/01 10:35:33;;;;;;;7.13;1.98;;;5.70;99.90;;;;;;5042473;28;20120;-56
2022/02/01 10:38:10;;;;;;;8.52;1.55;;;5.70;99.90;;;;;;5041342;28;20658;-57
2022/02/01 10:40:39;;;;;;;7.97;1.95;;;5.60;99.90;;;;;;5037691;28;20500;-57
2022/02/01 10:43:19;;;;;;;7.25;2.50;;;5.60;99.90;;;;;;5043159;28;20025;-56
2022/02/01 10:45:47;;;;;;;7.75;2.15;;;5.60;99.90;;;;;;5040295;28;20029;-57
2022/02/01 10:48:14;;;;;;;7.82;2.47;;;5.70;99.90;;;;;;5042446;28;20025;-58
2022/02/01 10:50:40;;;;;;;12.73;2.65;;;5.70;99.90;;;;;;5044296;28;20056;-58
2022/02/01 10:53:16;;;;;;;10.27;2.58;;;5.70;99.90;;;;;;5044623;28;20444;-57
2022/02/01 10:55:43;;;;;;;14.55;2.58;;;5.70;99.90;;;;;;5042154;28;20071;-57
2022/02/01 10:58:09;;;;;;;9.02;2.72;;;5.60;99.90;;;;;;5043169;28;20069;-57
2022/02/01 11:00:35;;;;;;;9.68;2.95;;;5.60;99.90;;;;;;5044943;28;20067;-57
2022/02/01 11:03:01;;;;;;;8.35;2.95;;;5.60;99.90;;;;;;5046779;28;20037;-58
2022/02/01 11:05:27;;;;;;;7.30;2.00;;;5.60;99.90;;;;;;5046978;28;20496;-57
2022/02/01 11:07:54;;;;;;;10.65;2.67;;;5.50;99.90;;;;;;5047977;28;20033;-56
2022/02/01 11:10:19;;;;;;;7.35;2.35;;;5.50;99.90;;;;;;5043497;28;20098;-57
2022/02/01 11:12:45;;;;;;;12.80;2.90;;;5.40;99.90;;;;;;5046101;28;20484;-56
2022/02/01 11:15:21;;;;;;;10.23;3.22;;;5.40;99.90;;;;;;5039188;28;20040;-57
2022/02/01 11:17:50;;;;;;;9.75;2.97;;;5.30;99.90;;;;;;5039137;28;20098;-57
2022/02/01 11:20:30;;;;;;;8.23;2.80;;;5.20;99.90;;;;;;5047783;28;20028;-57
2022/02/01 11:23:07;;;;;;;7.88;2.58;;;5.10;99.90;;;;;;5048758;28;20486;-57
2022/02/01 11:25:46;;;;;;;13.45;3.20;;;5.10;99.90;;;;;;5047388;28;20055;-57
2022/02/01 11:31:03;;;;;;;14.95;3.22;;;4.90;99.90;;;;;;5048060;28;20610;-56
2022/02/01 11:33:59;;;;;;;8.13;3.42;;;4.90;99.90;;;;;;5046501;28;20037;-56
2022/02/01 11:36:24;;;;;;;9.57;2.95;;;4.90;99.90;;;;;;5044804;28;20032;-57
2022/02/01 11:38:55;;;;;;;7.57;2.70;;;4.80;99.90;;;;;;5046812;28;20591;-57
2022/02/01 11:41:32;;;;;;;6.32;2.50;;;4.80;99.90;;;;;;5047678;28;20029;-57
2022/02/01 11:44:12;;;;;;;10.35;4.30;;;4.80;99.90;;;;;;5047199;28;20025;-56
2022/02/01 11:46:39;;;;;;;6.63;2.58;;;4.80;99.90;;;;;;5042647;28;20029;-57
2022/02/01 11:49:06;;;;;;;9.90;2.55;;;4.70;99.90;;;;;;5042897;28;20040;-57
2022/02/01 11:51:32;;;;;;;7.45;2.65;;;4.70;99.90;;;;;;5041877;28;20037;-56
2022/02/01 11:53:59;;;;;;;9.48;2.13;;;4.70;99.90;;;;;;5040209;28;20386;-57
2022/02/01 11:56:37;;;;;;;6.40;1.70;;;4.70;99.90;;;;;;5046960;28;20039;-57
2022/02/01 11:59:07;;;;;;;6.90;2.25;;;4.70;99.90;;;;;;5043484;28;20500;-58
2022/02/01 12:01:39;;;;;;;9.07;1.40;;;4.70;99.90;;;;;;5041496;28;20041;-57
2022/02/01 12:04:12;;;;;;;4.55;2.03;;;4.70;99.90;;;;;;5046207;28;20111;-57
2022/02/01 12:06:45;;;;;;;10.10;1.83;;;4.60;99.90;;;;;;5047010;28;20501;-58
2022/02/01 12:09:19;;;;;;;4.10;1.70;;;4.60;99.90;;;;;;5043103;28;20037;-57
2022/02/01 12:11:46;;;;;;;2.85;1.23;;;4.60;99.90;;;;;;5046741;28;20029;-57
2022/02/01 12:14:11;;;;;;;8.65;1.70;;;4.60;99.90;;;;;;5041234;28;20041;-58
2022/02/01 12:16:44;;;;;;;10.88;1.90;;;4.70;99.90;;;;;;5039439;28;20021;-57
2022/02/01 12:19:44;;;;;;;4.20;0.90;;;4.70;99.90;;;;;;5045150;28;20055;-55
2022/02/01 12:22:26;;;;;;;3.88;1.20;;;4.70;99.90;;;;;;5038203;28;20033;-57
2022/02/01 12:24:52;;;;;;;5.32;1.10;;;4.70;99.90;;;;;;5043335;28;20366;-57
2022/02/01 12:27:18;;;;;;;6.32;1.20;;;4.70;99.90;;;;;;5047683;28;20017;-56
2022/02/01 12:29:44;;;;;;;4.07;0.70;;;4.70;99.90;;;;;;5046133;28;20047;-57
2022/02/01 12:32:10;;;;;;;3.58;1.20;;;4.70;99.90;;;;;;5046207;28;20504;-56
2022/02/01 12:34:37;;;;;;;4.00;0.70;;;4.70;99.90;;;;;;5045274;28;20033;-56
2022/02/01 12:37:03;;;;;;;2.38;1.15;;;4.70;99.90;;;;;;5044591;28;20024;-57
2022/02/01 12:39:33;;;;;;;5.70;1.00;;;4.70;99.90;;;;;;5042803;28;20075;-57
2022/02/01 12:42:29;;;;;;;4.72;1.05;;;4.70;99.90;;;;;;5039169;28;20569;-57
2022/02/01 12:47:23;;;;;;;4.18;0.98;;;4.70;99.90;;;;;;5039719;28;20025;-57
2022/02/01 12:49:55;;;;;;;1.58;0.68;;;4.70;99.90;;;;;;5042905;28;20437;-57
2022/02/01 12:52:31;;;;;;;2.45;0.60;;;4.70;99.90;;;;;;5044385;28;20049;-57
2022/02/01 12:55:09;;;;;;;1.58;0.68;;;4.80;99.90;;;;;;5040277;28;20213;-57
2022/02/01 12:57:36;;;;;;;2.17;0.70;;;4.80;99.90;;;;;;5044714;28;20033;-57
2022/02/01 13:00:10;;;;;;;1.88;0.80;;;4.80;99.90;;;;;;5041920;28;20497;-57
2022/02/01 13:02:35;;;;;;;2.10;0.40;;;4.90;99.90;;;;;;5043345;28;20108;-57
2022/02/01 13:05:03;;;;;;;4.32;0.50;;;4.90;99.90;;;;;;5039247;28;20044;-57
2022/02/01 13:21:22;;;;;;;0.70;0.50;;;5.00;99.90;;;;;;5043777;28;20174;-57
2022/02/01 13:23:52;;;;;;;3.70;1.02;;;5.10;99.90;;;;;;5037429;28;20029;-57
2022/02/01 13:26:17;;;;;;;0.90;0.50;;;5.10;99.90;;;;;;5045469;28;20028;-56
2022/02/01 13:28:55;;;;;;;1.73;0.50;;;5.10;99.90;;;;;;5043422;28;20025;-58
2022/02/01 13:31:25;;;;;;;2.38;0.50;;;5.10;99.90;;;;;;5045442;28;20066;-58
2022/02/01 13:34:00;;;;;;;1.50;0.55;;;5.10;99.90;;;;;;5043281;28;20032;-58
2022/02/01 13:36:26;;;;;;;1.45;0.65;;;5.10;99.90;;;;;;5041984;28;20025;-58
2022/02/01 13:39:02;;;;;;;1.20;0.55;;;5.10;99.90;;;;;;5042796;28;20020;-56
2022/02/01 13:41:30;;;;;;;1.05;0.50;;;5.10;99.90;;;;;;5041672;28;20025;-55
2022/02/01 13:43:58;;;;;;;5.53;0.40;;;5.20;99.90;;;;;;5042179;28;20555;-58
2022/02/01 13:46:28;;;;;;;0.60;0.30;;;5.20;99.90;;;;;;5039569;28;20028;-57
2022/02/01 13:49:08;;;;;;;1.63;0.55;;;5.20;99.90;;;;;;5042536;28;20413;-57
2022/02/01 13:51:48;;;;;;;2.65;0.40;;;5.30;99.90;;;;;;5039647;28;20028;-57
2022/02/01 13:54:14;;;;;;;1.42;0.30;;;5.30;99.90;;;;;;5041692;28;20021;-57
2022/02/01 13:56:45;;;;;;;1.17;0.30;;;5.30;99.90;;;;;;5037185;28;20035;-58
2022/02/01 13:59:15;;;;;;;1.33;0.75;;;5.30;99.90;;;;;;5039773;28;20430;-57
2022/02/01 14:01:44;;;;;;;1.50;0.22;;;5.30;99.90;;;;;;5034597;28;20022;-57
2022/02/01 14:05:05;;;;;;;0.93;0.35;;;5.40;99.90;;;;;;5044102;28;20056;-55
2022/02/01 14:07:22;;;;;;;0.40;0.40;;;5.30;99.90;;;;;;5037651;28;20465;-58
2022/02/01 14:16:10;;;;;;;1.00;0.30;;;5.40;99.90;;;;;;5044788;28;20040;-57
2022/02/01 14:25:50;;;;;;;3.53;0.40;;;5.50;99.90;;;;;;5038368;28;20040;-57
2022/02/01 14:28:47;;;;;;;1.88;0.28;;;5.50;99.90;;;;;;5041832;28;20025;-58
2022/02/01 14:34:04;;;;;;;0.47;0.30;;;5.50;99.90;;;;;;5037645;28;20047;-58
2022/02/01 14:36:33;;;;;;;2.15;0.30;;;5.50;99.90;;;;;;5045079;28;20532;-58
2022/02/01 14:39:16;;;;;;;2.40;0.40;;;5.50;99.90;;;;;;5044984;28;20082;-58
2022/02/01 14:46:54;;;;;;;0.60;0.30;;;5.50;99.90;;;;;;5045405;28;20037;-58
2022/02/01 14:49:23;;;;;;;6.28;1.08;;;5.60;99.90;;;;;;5043310;28;20032;-58
2022/02/01 14:51:53;;;;;;;0.85;0.43;;;5.60;99.90;;;;;;5038979;28;20452;-57
2022/02/01 14:54:21;;;;;;;3.22;0.22;;;5.60;99.90;;;;;;5042474;28;20025;-57
2022/02/01 14:56:50;;;;;;;0.30;0.30;;;5.60;99.90;;;;;;5048045;28;20037;-58
2022/02/01 15:05:03;;;;;;;0.93;0.40;;;5.60;99.90;;;;;;5044995;28;20091;-57